Time;durP1;ratioP1;P1;durP2;ratioP2;P2;SDS_P1;SDS_P2;PMS_P1;PMS_P2;Temp;Humidity;BMP_temperature;BMP_pressure;BME280_temperature;BME280_humidity;BME280_pressure;Samples;Min_cycle;Max_cycle;Signal;HPM_P1;HPM_P2
2022/08/11 00:00:01;;;;;;;2.85;1.92;;;;;;;24.56;32.55;100963.63;4138298;28;20125;-66
2022/08/11 00:02:06;;;;;;;5.22;1.98;;;;;;;24.53;32.91;100965.50;4139758;28;20504;-66
2022/08/11 00:04:21;;;;;;;2.63;1.90;;;;;;;24.54;32.49;100969.91;4137085;28;20076;-66
2022/08/11 00:06:26;;;;;;;3.28;2.20;;;;;;;24.56;32.67;100968.94;4149422;28;20038;-66
2022/08/11 00:08:31;;;;;;;3.40;1.95;;;;;;;24.57;32.79;100967.13;4145068;28;20034;-66
2022/08/11 00:10:34;;;;;;;4.70;2.15;;;;;;;24.52;32.68;100961.13;4147363;28;20125;-66
2022/08/11 00:12:38;;;;;;;3.58;2.22;;;;;;;24.47;32.91;100957.75;4141165;28;20038;-66
2022/08/11 00:14:43;;;;;;;3.75;1.92;;;;;;;24.39;32.96;100966.88;4141583;28;20054;-66
2022/08/11 00:16:54;;;;;;;3.90;2.13;;;;;;;24.37;32.88;100970.50;4140687;28;20041;-65
2022/08/11 00:19:00;;;;;;;5.50;2.15;;;;;;;24.31;32.75;100974.28;4140286;28;20062;-66
2022/08/11 00:21:05;;;;;;;6.32;2.28;;;;;;;24.29;32.58;100964.59;4147821;28;20042;-66
2022/08/11 00:23:12;;;;;;;3.53;2.20;;;;;;;24.30;32.89;100968.97;4139323;28;20112;-66
2022/08/11 00:25:21;;;;;;;2.03;1.77;;;;;;;24.30;32.54;100966.31;4141898;28;20108;-66
2022/08/11 00:27:33;;;;;;;4.28;2.22;;;;;;;24.29;32.40;100970.78;4140722;28;20046;-68
2022/08/11 00:29:36;;;;;;;3.60;2.20;;;;;;;24.24;32.17;100970.09;4136620;28;20049;-66
2022/08/11 00:31:56;;;;;;;3.45;2.20;;;;;;;24.18;32.43;100962.31;4140924;28;20628;-66
2022/08/11 00:34:01;;;;;;;5.60;1.90;;;;;;;24.21;32.72;100962.19;4138672;28;20567;-66
2022/08/11 00:36:08;;;;;;;5.65;2.40;;;;;;;24.22;32.75;100972.81;4143930;28;20137;-66
2022/08/11 00:38:12;;;;;;;4.82;2.22;;;;;;;24.22;32.68;100966.59;4148243;28;20045;-66
2022/08/11 00:40:32;;;;;;;3.70;2.20;;;;;;;24.28;32.58;100969.03;4140778;28;20038;-66
2022/08/11 00:42:46;;;;;;;3.05;1.88;;;;;;;24.23;32.73;100966.53;4140702;28;20045;-66
2022/08/11 00:45:03;;;;;;;6.53;2.25;;;;;;;24.19;32.92;100970.22;4141056;28;20137;-66
2022/08/11 00:47:18;;;;;;;2.60;2.08;;;;;;;24.18;32.93;100971.16;4148576;28;20049;-66
2022/08/11 00:49:36;;;;;;;4.65;2.10;;;;;;;24.19;33.02;100964.06;4148446;28;20038;-66
2022/08/11 00:51:55;;;;;;;4.45;1.83;;;;;;;24.19;33.12;100975.53;4144799;28;20117;-66
2022/08/11 00:54:27;;;;;;;4.72;2.03;;;;;;;24.19;32.58;100969.38;4162541;28;20099;-66
2022/08/11 00:57:15;;;;;;;5.75;2.15;;;;;;;24.16;32.72;100970.34;4143369;28;20046;-65
2022/08/11 01:00:03;;;;;;;6.30;2.20;;;;;;;24.18;32.35;100967.63;4140550;28;20038;-65
2022/08/11 01:02:18;;;;;;;7.20;2.42;;;;;;;24.08;32.94;100967.09;4148664;28;20038;-65
2022/08/11 01:04:57;;;;;;;3.97;1.80;;;;;;;24.05;32.61;100970.72;4147195;28;20038;-66
2022/08/11 01:07:32;;;;;;;6.40;2.33;;;;;;;24.01;33.42;100969.06;4114235;28;20089;-66
2022/08/11 01:10:11;;;;;;;5.47;1.98;;;;;;;24.00;33.89;100974.44;4127615;28;20062;-67
2022/08/11 01:12:44;;;;;;;5.97;2.60;;;;;;;24.02;34.19;100968.16;4140538;28;20065;-65
2022/08/11 01:15:23;;;;;;;3.88;2.47;;;;;;;24.01;33.44;100966.41;4146217;28;20037;-66
2022/08/11 01:18:12;;;;;;;7.13;2.25;;;;;;;23.86;33.88;100967.81;4147705;28;20042;-66
2022/08/11 01:20:35;;;;;;;3.22;2.00;;;;;;;23.84;33.84;100968.72;4144897;28;20130;-67
2022/08/11 01:23:46;;;;;;;4.00;2.40;;;;;;;23.84;34.26;100963.44;4144813;28;20038;-67
2022/08/11 01:26:12;;;;;;;5.72;2.28;;;;;;;23.84;34.17;100963.44;4140338;28;20501;-66
2022/08/11 01:28:49;;;;;;;3.40;2.20;;;;;;;23.86;34.16;100966.94;4148247;28;20407;-66
2022/08/11 01:31:36;;;;;;;6.65;2.08;;;;;;;23.78;34.37;100968.94;4142141;28;20044;-66
2022/08/11 01:34:19;;;;;;;2.50;2.05;;;;;;;23.83;34.67;100964.34;4135563;28;20542;-66
2022/08/11 01:37:00;;;;;;;3.45;1.88;;;;;;;23.82;35.14;100957.31;4147300;28;20034;-66
2022/08/11 01:39:27;;;;;;;5.32;1.90;;;;;;;23.80;35.25;100961.78;4161014;28;20042;-66
2022/08/11 01:44:51;;;;;;;3.28;1.95;;;;;;;23.76;35.09;100968.09;4089665;28;20054;-66
2022/08/11 01:47:06;;;;;;;3.90;2.13;;;;;;;23.73;35.17;100965.56;4127327;28;20173;-66
2022/08/11 01:49:17;;;;;;;3.55;1.90;;;;;;;23.68;35.50;100971.91;4148678;28;20030;-65
2022/08/11 01:52:01;;;;;;;4.78;2.13;;;;;;;23.64;35.87;100967.59;4133702;28;20141;-66
2022/08/11 01:54:09;;;;;;;5.60;2.50;;;;;;;23.64;35.53;100974.69;4148130;28;20049;-66
2022/08/11 01:56:27;;;;;;;5.15;1.80;;;;;;;23.59;35.85;100974.84;4145069;28;20034;-65
2022/08/11 01:58:38;;;;;;;5.68;2.03;;;;;;;23.56;35.67;100976.72;4147026;28;20407;-66
2022/08/11 02:00:54;;;;;;;4.32;2.22;;;;;;;23.53;35.45;100980.34;4147758;28;20045;-66
2022/08/11 02:03:07;;;;;;;5.53;2.20;;;;;;;23.53;35.93;100985.66;4162957;28;20049;-66
2022/08/11 02:05:23;;;;;;;4.55;2.30;;;;;;;23.60;35.82;100989.84;4147308;28;20053;-67
2022/08/11 02:07:32;;;;;;;4.53;2.58;;;;;;;23.57;35.55;100987.28;4138860;28;20081;-66
2022/08/11 02:09:53;;;;;;;3.45;2.20;;;;;;;23.55;34.85;100982.94;4138450;28;21162;-66
2022/08/11 02:12:15;;;;;;;7.85;2.30;;;;;;;23.52;34.73;100986.56;4142714;28;20038;-66
2022/08/11 02:14:29;;;;;;;3.10;1.92;;;;;;;23.50;35.93;100981.31;4130397;28;20046;-65
2022/08/11 02:16:46;;;;;;;4.60;2.10;;;;;;;23.54;35.85;100982.09;4141892;28;20049;-66
2022/08/11 02:23:52;;;;;;;6.22;2.55;;;;;;;23.60;34.63;100984.53;4142454;28;20038;-67
2022/08/11 02:26:10;;;;;;;;;;;;;;;23.44;34.97;100981.50;4147014;28;20046;-65
2022/08/11 02:28:27;;;;;;;7.88;3.05;;;;;;;23.53;34.53;100972.38;4139240;28;19922;-65
2022/08/11 02:30:37;;;;;;;7.22;2.70;;;;;;;23.60;34.02;100979.22;4142516;28;20042;-65
2022/08/11 02:35:18;;;;;;;4.30;2.20;;;;;;;23.59;34.61;100977.50;4138258;28;20030;-65
2022/08/11 02:37:27;;;;;;;5.25;2.67;;;;;;;23.57;34.47;100963.41;4139275;28;20123;-65
2022/08/11 02:39:41;;;;;;;3.40;2.20;;;;;;;23.57;34.46;100963.41;4139367;28;20049;-66
2022/08/11 02:44:46;;;;;;;7.40;2.60;;;;;;;23.52;35.25;100960.91;4140860;28;20042;-65
2022/08/11 02:46:58;;;;;;;4.55;1.92;;;;;;;23.52;35.93;100962.69;4141711;28;20042;-66
2022/08/11 02:51:52;;;;;;;6.10;1.90;;;;;;;23.46;36.59;100962.88;4139039;28;20529;-67
2022/08/11 02:54:07;;;;;;;4.95;2.22;;;;;;;23.42;36.52;100959.47;4117840;28;20047;-66
2022/08/11 02:56:21;;;;;;;3.65;2.03;;;;;;;23.43;36.18;100968.28;4145457;28;20044;-65
2022/08/11 02:58:36;;;;;;;5.88;2.20;;;;;;;23.37;36.34;100968.47;4148190;28;20060;-66
2022/08/11 03:00:50;;;;;;;6.40;2.60;;;;;;;23.30;36.72;100968.66;4148396;28;20072;-68
2022/08/11 03:03:05;;;;;;;5.03;2.58;;;;;;;23.24;37.15;100974.16;4146576;28;20352;-66
2022/08/11 03:05:21;;;;;;;6.03;2.58;;;;;;;23.23;37.03;100969.78;4149515;28;20038;-66
2022/08/11 03:07:32;;;;;;;2.85;2.22;;;;;;;23.17;37.51;100967.28;4155892;28;20136;-65
2022/08/11 03:09:46;;;;;;;4.97;2.28;;;;;;;23.12;38.07;100961.28;4145309;28;20095;-66
2022/08/11 03:16:54;;;;;;;8.13;2.80;;;;;;;23.11;37.91;100972.78;4131836;28;20042;-66
2022/08/11 03:19:08;;;;;;;5.32;2.65;;;;;;;23.14;37.81;100970.03;4130796;28;20136;-66
2022/08/11 03:21:20;;;;;;;4.30;2.40;;;;;;;23.18;37.76;100967.25;4144815;28;20199;-66
2022/08/11 03:23:30;;;;;;;5.40;2.67;;;;;;;23.15;37.46;100969.13;4143395;28;20034;-66
2022/08/11 03:25:54;;;;;;;5.50;2.60;;;;;;;23.12;37.22;100969.22;4147774;28;20132;-66
2022/08/11 03:28:10;;;;;;;4.90;2.30;;;;;;;23.09;37.46;100964.84;4141303;28;20140;-66
2022/08/11 03:30:16;;;;;;;7.25;2.38;;;;;;;23.06;37.54;100970.25;4138619;28;20045;-65
2022/08/11 03:32:28;;;;;;;3.53;2.20;;;;;;;23.09;37.40;100974.59;4139645;28;20488;-66
2022/08/11 03:34:36;;;;;;;3.95;2.20;;;;;;;23.13;37.54;100977.13;4145788;28;20042;-66
2022/08/11 03:37:06;;;;;;;6.07;2.60;;;;;;;23.07;37.24;100976.41;4142584;28;20385;-67
2022/08/11 03:39:26;;;;;;;3.55;2.10;;;;;;;23.13;37.55;100981.56;4139692;28;20516;-58
2022/08/11 03:41:44;;;;;;;3.13;2.08;;;;;;;23.34;37.54;100975.59;4142449;28;20034;-58
2022/08/11 03:44:20;;;;;;;4.07;2.22;;;;;;;23.51;37.52;100977.75;4145304;28;20069;-59
2022/08/11 03:46:35;;;;;;;6.60;2.15;;;;;;;23.64;37.08;100982.66;4141703;28;20053;-59
2022/08/11 03:48:49;;;;;;;6.68;2.60;;;;;;;23.59;36.38;100980.16;4147472;28;20412;-58
2022/08/11 03:51:03;;;;;;;5.97;2.53;;;;;;;23.56;36.51;100979.38;4144817;28;20041;-58
2022/08/11 03:53:17;;;;;;;6.60;2.72;;;;;;;23.50;36.80;100977.78;4139362;28;20044;-58
2022/08/11 03:55:33;;;;;;;4.63;2.40;;;;;;;23.49;36.59;100984.88;4144411;28;20550;-58
2022/08/11 03:58:14;;;;;;;3.30;2.17;;;;;;;23.51;36.52;100982.19;4148447;28;20056;-58
2022/08/11 04:00:38;;;;;;;7.75;2.55;;;;;;;23.48;36.27;100982.25;4143265;28;20050;-58
2022/08/11 04:03:14;;;;;;;10.73;2.67;;;;;;;23.49;36.53;100982.22;4141277;28;20038;-58
2022/08/11 04:06:01;;;;;;;4.32;2.10;;;;;;;23.47;36.40;100981.41;4138311;28;20051;-58
2022/08/11 04:08:30;;;;;;;5.07;2.40;;;;;;;23.48;36.30;100982.25;4144808;28;20048;-59
2022/08/11 04:11:11;;;;;;;4.88;2.50;;;;;;;23.43;36.18;100976.25;4140700;28;20042;-58
2022/08/11 04:13:44;;;;;;;6.82;2.88;;;;;;;23.40;36.55;100985.16;4104887;28;20058;-58
2022/08/11 04:16:23;;;;;;;3.40;2.33;;;;;;;23.09;37.23;100983.41;4132693;28;20148;-70
2022/08/11 04:19:12;;;;;;;8.65;2.60;;;;;;;22.62;38.27;100983.84;4137791;28;20044;-68
2022/08/11 04:21:44;;;;;;;3.95;2.47;;;;;;;22.43;39.07;100991.44;4146321;28;20048;-68
2022/08/11 04:24:06;;;;;;;6.15;2.70;;;;;;;22.21;39.65;100985.81;4136990;28;20058;-70
2022/08/11 04:27:06;;;;;;;3.70;2.53;;;;;;;21.96;40.21;100981.13;4139166;28;20412;-69
2022/08/11 04:29:25;;;;;;;5.50;2.60;;;;;;;21.89;40.48;100986.59;4145436;28;20053;-71
2022/08/11 04:32:08;;;;;;;3.63;2.40;;;;;;;21.84;40.71;100980.56;4141230;28;20045;-71
2022/08/11 04:34:41;;;;;;;6.93;2.70;;;;;;;21.75;40.98;100981.66;4138308;28;20042;-69
2022/08/11 04:39:39;;;;;;;6.28;2.80;;;;;;;21.73;41.21;100983.47;4131125;28;20133;-69
2022/08/11 04:45:09;;;;;;;7.68;2.80;;;;;;;21.65;41.46;100991.56;4143035;28;20073;-69
2022/08/11 05:03:54;;;;;;;7.32;2.58;;;;;;;21.65;42.81;100996.84;4132272;28;20038;-69
2022/08/11 05:06:36;;;;;;;5.32;2.80;;;;;;;21.67;42.88;101002.13;4132702;28;20471;-69
2022/08/11 05:09:16;;;;;;;4.05;2.45;;;;;;;21.65;42.96;101002.16;4132346;28;20085;-69
2022/08/11 05:11:39;;;;;;;5.97;2.45;;;;;;;21.67;43.03;101004.75;4136658;28;20045;-69
2022/08/11 05:35:45;;;;;;;12.43;3.67;;;;;;;22.08;41.22;101006.44;4148226;28;20088;-69
2022/08/11 05:57:37;;;;;;;11.75;4.75;;;;;;;22.51;40.53;101020.38;4131661;28;20046;-69
2022/08/11 06:00:00;;;;;;;9.10;4.50;;;;;;;22.59;40.39;101018.41;4142086;28;20546;-69
2022/08/11 06:02:04;;;;;;;13.70;4.57;;;;;;;22.66;40.40;101025.28;4142301;28;20125;-69
2022/08/11 06:04:14;;;;;;;14.63;4.95;;;;;;;22.76;40.49;101030.31;4129335;28;20042;-69
2022/08/11 06:06:17;;;;;;;9.50;4.40;;;;;;;22.87;40.35;101024.69;4141104;28;20042;-69
2022/08/11 06:08:28;;;;;;;10.38;4.05;;;;;;;22.95;40.02;101020.91;4148936;28;20056;-69
2022/08/11 06:10:34;;;;;;;8.48;3.58;;;;;;;22.97;39.45;101024.41;4149011;28;20148;-69
2022/08/11 06:12:39;;;;;;;12.63;4.70;;;;;;;23.05;39.22;101020.69;4147162;28;20525;-68
2022/08/11 06:14:44;;;;;;;15.70;4.50;;;;;;;23.14;38.58;101021.31;4144988;28;20033;-68
2022/08/11 06:16:49;;;;;;;7.97;3.92;;;;;;;23.20;38.83;101020.25;4131491;28;20137;-68
2022/08/11 06:18:53;;;;;;;19.17;4.53;;;;;;;23.22;38.71;101018.44;4131391;28;20050;-69
2022/08/11 06:20:59;;;;;;;17.15;4.00;;;;;;;23.20;39.18;101025.56;4138153;28;20041;-69
2022/08/11 06:23:04;;;;;;;11.40;4.18;;;;;;;23.27;39.01;101027.09;4140875;28;20102;-70
2022/08/11 06:25:09;;;;;;;21.20;4.38;;;;;;;23.32;38.56;101019.91;4131295;28;20496;-70
2022/08/11 06:27:20;;;;;;;23.25;5.38;;;;;;;23.40;38.50;101026.75;4146574;28;20054;-69
2022/08/11 06:29:25;;;;;;;18.05;5.18;;;;;;;23.35;38.26;101022.44;4140187;28;20142;-69
2022/08/11 06:31:55;;;;;;;15.38;5.07;;;;;;;23.29;38.59;101025.31;4147173;28;20049;-69
2022/08/11 06:34:09;;;;;;;14.10;5.40;;;;;;;23.41;38.38;101020.50;4148529;28;20518;-69
2022/08/11 06:36:22;;;;;;;14.35;5.10;;;;;;;23.46;38.35;101021.25;4147382;28;20046;-69
2022/08/11 06:38:46;;;;;;;13.05;4.03;;;;;;;23.46;38.19;101021.25;4147728;28;20065;-69
2022/08/11 06:43:18;;;;;;;11.93;4.45;;;;;;;23.61;37.88;101023.44;4146173;28;20069;-69
2022/08/11 06:45:37;;;;;;;15.63;4.57;;;;;;;23.63;37.68;101023.41;4147730;28;20459;-69
2022/08/11 06:47:46;;;;;;;11.38;3.80;;;;;;;23.67;37.24;101017.06;4148406;28;20056;-68
2022/08/11 06:52:13;;;;;;;16.98;4.30;;;;;;;23.88;37.14;101023.53;4140514;28;20575;-68
2022/08/11 06:54:40;;;;;;;13.60;4.22;;;;;;;23.93;36.67;101021.56;4131997;28;20042;-70
2022/08/11 07:02:00;;;;;;;9.45;3.67;;;;;;;24.12;36.68;101021.81;4131791;28;20394;-68
2022/08/11 07:04:08;;;;;;;13.38;3.70;;;;;;;24.12;36.71;101016.50;4140117;28;20096;-68
2022/08/11 07:06:27;;;;;;;8.45;4.25;;;;;;;24.23;35.78;101018.81;4140610;28;20041;-68
2022/08/11 07:16:44;;;;;;;11.13;3.40;;;;;;;24.42;35.86;101018.19;4110118;28;20080;-69
2022/08/11 07:28:56;;;;;;;7.28;2.17;;;;;;;24.71;35.63;101012.75;4146745;28;20493;-70
2022/08/11 07:31:04;;;;;;;6.15;2.90;;;;;;;24.75;35.86;101013.53;4147085;28;20129;-70
2022/08/11 07:33:08;;;;;;;8.20;4.05;;;;;;;24.91;35.86;101014.69;4143714;28;20065;-69
2022/08/11 07:35:16;;;;;;;12.63;3.63;;;;;;;25.09;35.47;101006.94;4160761;28;20057;-70
2022/08/11 07:37:20;;;;;;;6.10;3.10;;;;;;;25.18;34.67;101003.06;4140092;28;20042;-69
2022/08/11 07:39:28;;;;;;;5.20;2.60;;;;;;;25.29;34.72;101008.84;4147806;28;20488;-69
2022/08/11 07:41:34;;;;;;;4.30;2.20;;;;;;;25.34;34.86;101001.56;4147741;28;20034;-69
2022/08/11 07:43:38;;;;;;;4.95;2.20;;;;;;;25.31;34.96;101007.03;4146222;28;20428;-69
2022/08/11 07:52:48;;;;;;;4.57;2.10;;;;;;;25.75;33.08;101000.84;4113889;28;20043;-70
2022/08/11 07:54:57;;;;;;;6.07;2.30;;;;;;;25.91;33.37;100999.28;4130283;28;20042;-70
2022/08/11 08:18:51;;;;;;;2.72;2.10;;;;;;;26.42;31.44;101015.00;4131263;28;20065;-67
2022/08/11 08:21:10;;;;;;;5.85;2.15;;;;;;;26.39;31.45;101002.66;4131528;28;20052;-69
2022/08/11 08:23:16;;;;;;;3.70;1.98;;;;;;;26.26;31.59;101009.44;4130953;28;20524;-68
2022/08/11 08:25:19;;;;;;;5.57;2.03;;;;;;;26.34;32.18;101007.28;4134544;28;20439;-68
2022/08/11 08:27:24;;;;;;;5.10;2.28;;;;;;;26.45;32.25;101012.19;4148021;28;20064;-68
2022/08/11 08:31:55;;;;;;;5.38;2.53;;;;;;;26.76;30.87;101003.72;4134065;28;20089;-69
2022/08/11 08:33:58;;;;;;;5.22;2.72;;;;;;;26.93;30.82;101010.09;4137906;28;20140;-70
2022/08/11 08:36:14;;;;;;;3.08;2.03;;;;;;;27.07;30.37;101005.00;4148329;28;20092;-69
2022/08/11 08:38:19;;;;;;;4.68;2.35;;;;;;;26.87;30.83;101010.34;4116895;28;20469;-68
2022/08/11 08:40:22;;;;;;;7.40;2.38;;;;;;;27.01;30.21;101002.59;4146130;28;20599;-70
2022/08/11 08:42:28;;;;;;;4.38;2.20;;;;;;;27.02;30.82;101003.47;4140578;28;20533;-69
2022/08/11 08:44:35;;;;;;;2.75;1.90;;;;;;;27.08;30.17;100998.72;4134121;28;20047;-69
2022/08/11 08:46:46;;;;;;;5.70;2.53;;;;;;;27.05;30.14;100993.53;4132875;28;20077;-68
2022/08/11 08:48:50;;;;;;;7.95;2.70;;;;;;;27.31;29.50;100996.78;4132832;28;20057;-69
2022/08/11 08:53:30;;;;;;;5.60;2.17;;;;;;;27.30;29.96;100998.56;4139265;28;20048;-69
2022/08/11 08:55:34;;;;;;;5.60;2.40;;;;;;;27.54;29.09;100990.38;4147491;28;20492;-70
2022/08/11 08:57:39;;;;;;;3.85;2.20;;;;;;;27.54;29.85;100995.72;4133915;28;20062;-68
2022/08/11 08:59:47;;;;;;;6.20;2.40;;;;;;;27.73;29.50;100997.47;4133852;28;20066;-70
2022/08/11 09:01:58;;;;;;;4.97;2.05;;;;;;;27.78;29.00;100998.97;4133519;28;20467;-69
2022/08/11 09:04:03;;;;;;;9.80;2.38;;;;;;;27.77;28.60;100991.88;4133743;28;20121;-70
2022/08/11 09:06:16;;;;;;;2.90;2.20;;;;;;;27.82;27.98;100995.22;4132665;28;20049;-70
2022/08/11 09:08:20;;;;;;;5.47;2.20;;;;;;;27.77;28.33;100997.22;4146958;28;20038;-69
2022/08/11 09:10:26;;;;;;;4.45;2.28;;;;;;;27.78;28.71;100998.97;4140653;28;20046;-70
2022/08/11 09:12:31;;;;;;;6.03;2.35;;;;;;;27.84;28.68;100993.31;4115943;28;20054;-69
2022/08/11 09:15:02;;;;;;;7.63;2.45;;;;;;;27.93;28.24;100996.47;4133306;28;20042;-69
2022/08/11 09:17:05;;;;;;;3.97;2.50;;;;;;;27.95;28.14;100999.94;4132363;28;20046;-68
2022/08/11 09:19:08;;;;;;;7.13;2.17;;;;;;;27.92;28.31;100992.97;4133491;28;20484;-69
2022/08/11 09:21:14;;;;;;;3.85;1.98;;;;;;;27.90;28.98;101000.16;4140387;28;20408;-68
2022/08/11 09:28:42;;;;;;;6.40;2.45;;;;;;;27.87;28.58;101006.53;4133431;28;20053;-68
2022/08/11 09:30:52;;;;;;;5.55;2.83;;;;;;;27.83;28.62;101004.97;4133536;28;20042;-68
2022/08/11 09:32:56;;;;;;;4.30;2.35;;;;;;;27.69;29.20;101007.44;4132981;28;20133;-68
2022/08/11 09:35:03;;;;;;;4.07;2.47;;;;;;;27.78;29.02;101003.47;4136149;28;20507;-69
2022/08/11 09:42:12;;;;;;;7.68;2.47;;;;;;;27.80;28.71;100990.88;4149314;28;20041;-70
2022/08/11 09:46:49;;;;;;;10.20;2.38;;;;;;;28.26;26.65;100999.28;4164526;28;20096;-69
2022/08/11 09:48:57;;;;;;;6.13;2.25;;;;;;;28.31;27.12;100993.69;4147344;28;20042;-69
2022/08/11 09:51:02;;;;;;;6.78;2.00;;;;;;;28.33;27.48;100998.03;4149167;28;20473;-68
2022/08/11 09:53:06;;;;;;;4.13;1.95;;;;;;;28.38;27.63;100993.28;4134358;28;20046;-69
2022/08/11 09:55:29;;;;;;;4.03;1.90;;;;;;;28.58;26.17;100993.19;4143895;28;20042;-68
2022/08/11 09:59:54;;;;;;;2.15;1.80;;;;;;;28.34;26.64;100986.41;4134645;28;20100;-69
2022/08/11 10:02:17;;;;;;;2.03;1.70;;;;;;;28.40;26.78;100987.84;4131518;28;20046;-68
2022/08/11 10:04:31;;;;;;;2.47;1.73;;;;;;;28.58;27.31;100980.69;4132845;28;20047;-68
2022/08/11 10:08:58;;;;;;;4.47;2.63;;;;;;;28.66;26.84;100967.78;4144449;28;20061;-68
2022/08/11 10:11:01;;;;;;;5.50;2.65;;;;;;;28.78;26.58;100979.66;4142808;28;20042;-68
2022/08/11 10:13:09;;;;;;;6.18;2.15;;;;;;;28.92;26.47;100970.03;4131329;28;20137;-68
2022/08/11 10:15:37;;;;;;;2.92;2.00;;;;;;;29.00;26.42;100959.72;4131414;28;20049;-68
2022/08/11 10:18:40;;;;;;;7.13;2.97;;;;;;;29.21;25.79;100963.91;4147387;28;20040;-69
2022/08/11 10:20:11;;;;;;;4.10;1.95;;;;;;;29.06;25.63;100957.59;4132129;28;20042;-68
2022/08/11 10:27:15;;;;;;;4.72;2.22;;;;;;;29.27;25.42;100956.53;4132529;28;20046;-69
2022/08/11 10:34:15;;;;;;;4.25;2.08;;;;;;;29.35;24.32;100962.28;4132420;28;20042;-69
2022/08/11 10:36:21;;;;;;;9.05;1.95;;;;;;;29.45;23.95;100949.25;4132454;28;20501;-70
2022/08/11 10:38:26;;;;;;;2.80;1.83;;;;;;;29.42;23.78;100942.22;4131096;28;20097;-69
2022/08/11 10:40:31;;;;;;;6.50;1.88;;;;;;;29.51;24.25;100949.75;4132359;28;20512;-70
2022/08/11 10:47:33;;;;;;;8.23;2.05;;;;;;;29.56;23.70;100944.97;4161382;28;20046;-70
2022/08/11 10:47:33;;;;;;;3.13;1.90;;;;;;;29.56;23.29;100952.16;4139546;28;20042;-70
2022/08/11 10:49:37;;;;;;;3.35;1.65;;;;;;;29.40;23.79;100942.31;4145496;28;20096;-70
2022/08/11 10:58:49;;;;;;;7.32;2.13;;;;;;;29.77;23.09;100924.13;4132449;28;20057;-71
2022/08/11 11:00:55;;;;;;;4.07;1.77;;;;;;;29.64;23.18;100924.91;4148234;28;20045;-70
2022/08/11 11:02:59;;;;;;;5.25;2.00;;;;;;;29.62;23.39;100926.84;4133971;28;20050;-70
2022/08/11 11:05:28;;;;;;;3.15;1.88;;;;;;;29.68;22.73;100918.44;4131985;28;20042;-70
2022/08/11 11:07:38;;;;;;;4.28;2.17;;;;;;;29.60;23.15;100914.38;4131954;28;20038;-70
2022/08/11 11:09:49;;;;;;;2.47;1.92;;;;;;;29.57;23.51;100919.03;4131938;28;20405;-70
2022/08/11 11:19:17;;;;;;;5.07;2.08;;;;;;;30.08;22.64;100897.28;4147896;28;20133;-70
2022/08/11 11:21:21;;;;;;;6.57;2.30;;;;;;;30.08;22.26;100900.88;4131683;28;20506;-70
2022/08/11 11:23:28;;;;;;;3.92;1.83;;;;;;;30.09;22.78;100899.88;4146426;28;20439;-70
2022/08/11 11:25:39;;;;;;;7.88;2.35;;;;;;;30.25;21.90;100905.16;4131808;28;20046;-70
2022/08/11 11:27:56;;;;;;;3.15;1.85;;;;;;;30.21;22.06;100905.47;4130461;28;20050;-70
2022/08/11 11:30:06;;;;;;;3.55;2.00;;;;;;;30.01;22.48;100898.63;4141802;28;20100;-69
2022/08/11 11:32:21;;;;;;;4.95;2.08;;;;;;;30.11;22.55;100891.78;4139015;28;20089;-71
2022/08/11 11:34:42;;;;;;;4.13;1.77;;;;;;;30.19;21.94;100889.47;4145716;28;20041;-69
2022/08/11 11:36:57;;;;;;;3.17;1.80;;;;;;;30.10;22.40;100884.69;4144888;28;20042;-69
2022/08/11 11:39:00;;;;;;;2.67;1.67;;;;;;;30.07;22.11;100880.34;4133596;28;20042;-70
2022/08/11 11:43:26;;;;;;;3.85;2.10;;;;;;;30.20;22.20;100880.47;4127880;28;20535;-69
2022/08/11 11:45:30;;;;;;;4.45;1.88;;;;;;;30.43;22.13;100887.13;4120463;28;20038;-70
2022/08/11 11:47:36;;;;;;;3.45;1.73;;;;;;;30.36;21.94;100877.69;4141945;28;20060;-69
2022/08/11 11:49:43;;;;;;;5.00;1.95;;;;;;;30.09;22.00;100865.03;4147822;28;20037;-68
2022/08/11 11:51:47;;;;;;;3.03;1.60;;;;;;;30.08;22.61;100862.44;4146228;28;20101;-69
2022/08/11 11:53:52;;;;;;;4.90;1.60;;;;;;;30.19;22.43;100859.97;4147687;28;20087;-68
2022/08/11 11:55:56;;;;;;;5.60;1.75;;;;;;;30.26;22.47;100853.25;4147720;28;20089;-69
2022/08/11 12:02:46;;;;;;;4.13;2.00;;;;;;;30.64;22.62;100863.41;4149519;28;20041;-68
2022/08/11 12:04:50;;;;;;;4.80;2.47;;;;;;;30.78;22.56;100859.88;4150832;28;20038;-68
2022/08/11 12:08:08;;;;;;;5.20;1.80;;;;;;;30.92;21.52;100856.25;4150957;28;20491;-68
2022/08/11 12:09:21;;;;;;;2.40;1.55;;;;;;;30.80;21.34;100840.97;4150749;28;20073;-68
2022/08/11 12:13:51;;;;;;;3.70;2.33;;;;;;;30.89;21.47;100842.19;4146086;28;20038;-68
2022/08/11 12:15:54;;;;;;;7.50;2.08;;;;;;;30.97;21.57;100837.16;4133351;28;20100;-69
2022/08/11 12:18:19;;;;;;;4.82;2.30;;;;;;;30.88;21.30;100840.47;4133533;28;20050;-69
2022/08/11 12:20:23;;;;;;;5.15;1.85;;;;;;;30.85;21.51;100836.16;4144035;28;20515;-69
2022/08/11 12:27:22;;;;;;;6.18;2.15;;;;;;;31.01;21.30;100835.19;4142447;28;20042;-68
2022/08/11 12:29:28;;;;;;;3.78;2.10;;;;;;;31.04;21.30;100829.63;4149426;28;20046;-69
2022/08/11 12:31:32;;;;;;;4.50;2.15;;;;;;;31.13;21.17;100826.31;4149295;28;20518;-68
2022/08/11 12:33:36;;;;;;;5.80;2.28;;;;;;;31.17;20.88;100835.88;4150486;28;20041;-69
2022/08/11 12:35:42;;;;;;;8.48;1.88;;;;;;;31.10;20.43;100831.88;4149319;28;20045;-69
2022/08/11 12:38:03;;;;;;;5.63;2.00;;;;;;;31.03;20.78;100827.88;4165576;28;20400;-69
2022/08/11 12:45:30;;;;;;;3.22;1.80;;;;;;;31.13;21.25;100810.19;4132942;28;20519;-68
2022/08/11 12:51:55;;;;;;;4.10;1.88;;;;;;;31.26;21.03;100811.09;4134117;28;20042;-68
2022/08/11 12:52:45;;;;;;;2.65;1.90;;;;;;;31.24;21.37;100802.28;4138807;28;20128;-68
2022/08/11 12:54:59;;;;;;;4.90;2.22;;;;;;;31.36;20.34;100808.66;4145495;28;20048;-70
2022/08/11 13:06:45;;;;;;;3.72;2.05;;;;;;;31.47;20.41;100791.81;4132680;28;20456;-68
2022/08/11 13:08:49;;;;;;;4.72;2.05;;;;;;;31.29;20.91;100789.41;4133987;28;20416;-67
2022/08/11 13:13:15;;;;;;;1.73;1.50;;;;;;;31.39;20.85;100783.41;4147660;28;20130;-67
2022/08/11 13:15:38;;;;;;;3.10;2.05;;;;;;;31.73;19.66;100773.91;4146344;28;20109;-68
2022/08/11 13:17:42;;;;;;;3.30;1.75;;;;;;;31.76;19.43;100767.44;4148407;28;20065;-68
2022/08/11 13:19:48;;;;;;;7.63;1.80;;;;;;;31.65;19.85;100771.72;4148283;28;20042;-68
2022/08/11 13:21:53;;;;;;;4.15;2.00;;;;;;;31.81;19.19;100778.72;4148761;28;20766;-68
2022/08/11 13:23:57;;;;;;;4.80;1.90;;;;;;;31.63;19.00;100771.00;4134878;28;20134;-68
2022/08/11 13:26:06;;;;;;;3.42;2.13;;;;;;;31.65;19.85;100768.19;4132395;28;20101;-67
2022/08/11 13:28:11;;;;;;;4.97;2.30;;;;;;;31.68;19.57;100762.59;4133515;28;20047;-67
2022/08/11 13:32:42;;;;;;;3.28;1.80;;;;;;;31.58;19.52;100753.47;4147383;28;20038;-69
2022/08/11 13:34:47;;;;;;;2.10;1.60;;;;;;;31.50;20.71;100753.97;4148726;28;20034;-67
2022/08/11 13:36:54;;;;;;;3.30;1.92;;;;;;;31.57;20.52;100743.66;4136566;28;20042;-67
2022/08/11 13:38:58;;;;;;;5.72;2.20;;;;;;;31.94;19.52;100744.63;4133690;28;20042;-68
2022/08/11 13:41:36;;;;;;;3.30;2.00;;;;;;;31.77;19.97;100726.16;4133419;28;20322;-68
2022/08/11 13:43:25;;;;;;;7.82;1.98;;;;;;;31.97;19.50;100749.78;4132855;28;20089;-68
2022/08/11 13:45:28;;;;;;;4.10;2.00;;;;;;;31.93;20.35;100744.75;4137111;28;20431;-68
2022/08/11 13:47:32;;;;;;;2.70;2.10;;;;;;;32.07;19.07;100736.53;4147054;28;20495;-68
2022/08/11 13:49:43;;;;;;;3.45;2.22;;;;;;;31.78;20.22;100742.16;4133224;28;20101;-68
2022/08/11 13:51:46;;;;;;;3.38;1.80;;;;;;;31.86;20.23;100744.31;4145965;28;20042;-68
2022/08/11 13:53:52;;;;;;;3.63;2.00;;;;;;;32.05;19.80;100749.22;4136535;28;20038;-68
2022/08/11 13:56:03;;;;;;;;;;;;;;;32.07;19.73;100736.53;4132379;28;20200;-69
2022/08/11 13:58:10;;;;;;;4.55;1.88;;;;;;;32.11;18.96;100726.41;4133061;28;19926;-68
2022/08/11 14:00:33;;;;;;;5.60;2.22;;;;;;;32.21;18.96;100729.31;4146315;28;20447;-69
2022/08/11 14:02:39;;;;;;;2.43;1.93;;;;;;;32.10;19.42;100738.16;4137890;28;20053;-68
2022/08/11 14:04:49;;;;;;;3.58;1.85;;;;;;;32.09;19.05;100733.75;4132865;28;20411;-70
2022/08/11 14:06:54;;;;;;;7.32;1.88;;;;;;;32.08;18.58;100724.81;4131773;28;20374;-68
2022/08/11 14:08:59;;;;;;;3.47;2.10;;;;;;;32.03;19.23;100717.06;4148736;28;20587;-68